createdAt,value
2019-02-26T00:01:00.387Z,2.60
2019-02-26T00:02:17.409Z,2.60
2019-02-26T00:03:35.434Z,2.50
2019-02-26T00:04:53.880Z,2.50
2019-02-26T00:06:09.990Z,2.60
2019-02-26T00:07:28.136Z,2.50
2019-02-26T00:08:47.207Z,2.50
2019-02-26T00:10:04.065Z,2.50
2019-02-26T00:11:19.114Z,2.50
2019-02-26T00:12:35.589Z,2.40
2019-02-26T00:13:52.434Z,2.40
2019-02-26T00:15:09.528Z,2.40
2019-02-26T00:16:25.347Z,2.40
2019-02-26T00:17:43.719Z,2.30
2019-02-26T00:19:00.796Z,2.30
2019-02-26T00:20:17.502Z,2.40
2019-02-26T00:21:31.324Z,2.40
2019-02-26T00:22:55.338Z,2.40
2019-02-26T00:24:19.939Z,2.40
2019-02-26T00:27:28.193Z,2.40
2019-02-26T00:28:51.161Z,2.30
2019-02-26T00:34:55.698Z,2.30
2019-02-26T00:36:20.254Z,2.30
2019-02-26T00:42:11.344Z,2.30
2019-02-26T00:43:36.743Z,2.30
2019-02-26T00:49:53.997Z,2.20
2019-02-26T00:53:01.567Z,2.10
2019-02-26T00:54:26.680Z,2.10
2019-02-26T00:57:33.518Z,2.10
2019-02-26T00:58:57.773Z,2.10
2019-02-26T01:02:03.793Z,2.00
2019-02-26T01:03:27.276Z,2.00
2019-02-26T01:06:33.541Z,1.90
2019-02-26T01:11:09.944Z,2.00
2019-02-26T01:12:35.256Z,2.00
2019-02-26T01:13:59.595Z,2.10
2019-02-26T01:17:08.155Z,2.00
2019-02-26T01:20:04.014Z,2.00
2019-02-26T01:27:46.019Z,1.90
2019-02-26T01:29:03.010Z,1.90
2019-02-26T01:30:23.696Z,1.90
2019-02-26T01:31:36.636Z,1.80
2019-02-26T01:32:52.481Z,1.80
2019-02-26T01:34:11.016Z,1.90
2019-02-26T01:35:28.966Z,1.90
2019-02-26T01:36:46.785Z,1.90
2019-02-26T01:38:02.674Z,1.90
2019-02-26T01:39:21.008Z,1.90
2019-02-26T01:40:39.392Z,1.90
2019-02-26T01:41:56.310Z,1.90
2019-02-26T01:43:12.072Z,1.80
2019-02-26T01:44:30.479Z,1.80
2019-02-26T01:45:46.282Z,1.80
2019-02-26T01:47:04.702Z,1.70
2019-02-26T01:48:21.233Z,1.70
2019-02-26T01:49:37.042Z,1.70
2019-02-26T01:50:54.430Z,1.70
2019-02-26T01:52:12.853Z,1.70
2019-02-26T01:53:29.407Z,1.70
2019-02-26T01:54:45.450Z,1.70
2019-02-26T01:56:04.540Z,1.70
2019-02-26T01:57:19.455Z,1.70
2019-02-26T01:58:35.684Z,1.60
2019-02-26T01:59:51.743Z,1.60
2019-02-26T02:01:09.990Z,1.60
2019-02-26T02:02:27.757Z,1.60
2019-02-26T02:03:44.860Z,1.60
2019-02-26T02:05:05.371Z,1.60
2019-02-26T02:06:21.509Z,1.60
2019-02-26T02:07:37.517Z,1.60
2019-02-26T02:08:55.506Z,1.60
2019-02-26T02:10:11.765Z,1.60
2019-02-26T02:11:29.405Z,1.50
2019-02-26T02:12:45.997Z,1.50
2019-02-26T02:14:02.064Z,1.50
2019-02-26T02:15:21.618Z,1.40
2019-02-26T02:16:37.745Z,1.40
2019-02-26T02:17:55.424Z,1.40
2019-02-26T02:19:15.457Z,1.40
2019-02-26T02:20:29.507Z,1.40
2019-02-26T02:21:47.084Z,1.40
2019-02-26T02:22:51.844Z,1.40
2019-02-26T02:24:17.380Z,1.30
2019-02-26T02:27:17.540Z,1.30
2019-02-26T02:28:33.839Z,1.20
2019-02-26T02:29:52.952Z,1.20
2019-02-26T02:31:08.330Z,1.20
2019-02-26T02:32:26.228Z,1.20
2019-02-26T02:33:42.169Z,1.20
2019-02-26T02:35:00.987Z,1.10
2019-02-26T02:36:17.771Z,1.10
2019-02-26T02:37:33.920Z,1.10
2019-02-26T02:38:49.955Z,1.20
2019-02-26T02:40:05.880Z,1.20
2019-02-26T02:41:21.722Z,1.20
2019-02-26T02:42:38.495Z,1.20
2019-02-26T02:43:55.340Z,1.20
2019-02-26T02:45:13.540Z,1.20
2019-02-26T02:46:29.255Z,1.20
2019-02-26T02:47:45.156Z,1.30
2019-02-26T02:48:49.597Z,1.30
2019-02-26T02:51:55.854Z,1.20
2019-02-26T02:53:21.234Z,1.30
2019-02-26T02:54:47.031Z,1.30
2019-02-26T02:56:10.615Z,1.30
2019-02-26T02:57:35.064Z,1.30
2019-02-26T02:58:58.793Z,1.30
2019-02-26T03:00:23.906Z,1.30
2019-02-26T03:01:51.336Z,1.30
2019-02-26T03:03:12.667Z,1.30
2019-02-26T03:04:36.187Z,1.30
2019-02-26T03:06:01.804Z,1.40
2019-02-26T03:07:28.799Z,1.30
2019-02-26T03:08:51.041Z,1.30
2019-02-26T03:12:00.201Z,1.20
2019-02-26T03:13:25.445Z,1.20
2019-02-26T03:14:48.872Z,1.20
2019-02-26T03:17:56.527Z,1.10
2019-02-26T03:22:49.096Z,1.10
2019-02-26T03:24:11.817Z,1.20
2019-02-26T03:27:19.322Z,1.30
2019-02-26T03:28:37.473Z,1.30
2019-02-26T03:29:55.712Z,1.30
2019-02-26T03:31:11.472Z,1.30
2019-02-26T03:32:27.783Z,1.30
2019-02-26T03:33:43.940Z,1.30
2019-02-26T03:35:04.365Z,1.40
2019-02-26T03:36:19.250Z,1.60
2019-02-26T03:37:36.610Z,1.70
2019-02-26T03:38:54.812Z,1.70
2019-02-26T03:40:09.687Z,1.70
2019-02-26T03:41:27.832Z,1.70
2019-02-26T03:42:46.076Z,1.70
2019-02-26T03:44:03.287Z,1.60
2019-02-26T03:45:23.818Z,1.60
2019-02-26T03:46:37.676Z,1.70
2019-02-26T03:47:55.401Z,1.70
2019-02-26T03:49:11.551Z,1.70
2019-02-26T03:50:27.475Z,1.70
2019-02-26T03:51:43.647Z,1.70
2019-02-26T03:52:59.758Z,1.70
2019-02-26T03:54:15.343Z,1.70
2019-02-26T03:55:33.589Z,1.70
2019-02-26T03:56:48.674Z,1.60
2019-02-26T03:58:05.107Z,1.60
2019-02-26T03:59:21.172Z,1.60
2019-02-26T04:00:38.688Z,1.50
2019-02-26T04:01:55.175Z,1.40
2019-02-26T04:03:12.464Z,1.40
2019-02-26T04:04:31.191Z,1.40
2019-02-26T04:05:47.607Z,1.30
2019-02-26T04:07:05.107Z,1.40
2019-02-26T04:08:24.435Z,1.30
2019-02-26T04:09:44.030Z,1.30
2019-02-26T04:10:59.579Z,1.30
2019-02-26T04:12:18.315Z,1.20
2019-02-26T04:13:34.188Z,1.10
2019-02-26T04:14:50.181Z,1.10
2019-02-26T04:16:06.394Z,1.10
2019-02-26T04:17:25.437Z,1.00
2019-02-26T04:18:40.298Z,1.00
2019-02-26T04:19:56.358Z,0.90
2019-02-26T04:21:14.961Z,0.90
2019-02-26T04:22:30.645Z,0.90
2019-02-26T04:23:47.233Z,0.90
2019-02-26T04:25:09.134Z,0.80
2019-02-26T04:26:23.414Z,0.80
2019-02-26T04:27:41.999Z,0.80
2019-02-26T04:28:58.395Z,0.70
2019-02-26T04:30:16.080Z,0.70
2019-02-26T04:31:32.238Z,0.70
2019-02-26T04:32:49.016Z,0.70
2019-02-26T04:34:08.453Z,0.70
2019-02-26T04:35:23.728Z,0.60
2019-02-26T04:36:42.264Z,0.60
2019-02-26T04:37:58.955Z,0.60
2019-02-26T04:39:18.757Z,0.60
2019-02-26T04:40:35.759Z,0.60
2019-02-26T04:41:51.876Z,0.60
2019-02-26T04:43:10.312Z,0.60
2019-02-26T04:44:28.641Z,0.50
2019-02-26T04:45:43.916Z,0.50
2019-02-26T04:47:02.663Z,0.50
2019-02-26T04:48:20.218Z,0.50
2019-02-26T04:49:38.989Z,0.50
2019-02-26T04:50:53.692Z,0.50
2019-02-26T04:52:10.907Z,0.50
2019-02-26T04:53:28.733Z,0.50
2019-02-26T04:54:49.129Z,0.50
2019-02-26T04:56:06.326Z,0.40
2019-02-26T04:57:22.808Z,0.40
2019-02-26T04:58:40.383Z,0.40
2019-02-26T04:59:58.996Z,0.40
2019-02-26T05:01:16.425Z,0.30
2019-02-26T05:02:32.577Z,0.30
2019-02-26T05:03:48.417Z,0.30
2019-02-26T05:05:04.571Z,0.30
2019-02-26T05:06:20.654Z,0.40
2019-02-26T05:07:38.513Z,0.40
2019-02-26T05:08:56.883Z,0.50
2019-02-26T05:10:12.480Z,0.50
2019-02-26T05:11:32.579Z,0.50
2019-02-26T05:12:47.090Z,0.60
2019-02-26T05:14:02.899Z,0.60
2019-02-26T05:15:21.003Z,0.70
2019-02-26T05:16:40.182Z,0.70
2019-02-26T05:17:55.625Z,0.60
2019-02-26T05:19:13.599Z,0.60
2019-02-26T05:20:31.275Z,0.60
2019-02-26T05:21:47.326Z,0.60
2019-02-26T05:23:06.200Z,0.70
2019-02-26T05:24:21.928Z,0.80
2019-02-26T05:25:39.754Z,0.70
2019-02-26T05:26:57.242Z,0.70
2019-02-26T05:28:15.474Z,0.70
2019-02-26T05:29:31.949Z,0.60
2019-02-26T05:30:49.554Z,0.60
2019-02-26T05:32:07.246Z,0.60
2019-02-26T05:33:25.283Z,0.50
2019-02-26T05:34:43.458Z,0.50
2019-02-26T05:35:59.758Z,0.50
2019-02-26T05:37:16.088Z,0.50
2019-02-26T05:38:32.967Z,0.40
2019-02-26T05:39:51.806Z,0.40
2019-02-26T05:41:07.553Z,0.30
2019-02-26T05:42:23.569Z,0.30
2019-02-26T05:43:39.495Z,0.30
2019-02-26T05:44:59.137Z,0.30
2019-02-26T05:46:15.895Z,0.30
2019-02-26T05:47:31.973Z,0.20
2019-02-26T05:48:50.653Z,0.30
2019-02-26T05:50:09.056Z,0.30
2019-02-26T05:51:25.036Z,0.40
2019-02-26T05:52:42.169Z,0.40
2019-02-26T05:54:01.761Z,0.50
2019-02-26T05:55:17.581Z,0.50
2019-02-26T05:56:34.655Z,0.50
2019-02-26T05:57:51.913Z,0.50
2019-02-26T05:59:09.607Z,0.50
2019-02-26T06:00:29.404Z,0.40
2019-02-26T06:01:46.571Z,0.40
2019-02-26T06:03:03.635Z,0.30
2019-02-26T06:04:20.783Z,0.30
2019-02-26T06:05:40.907Z,0.30
2019-02-26T06:06:56.318Z,0.20
2019-02-26T06:08:12.609Z,0.10
2019-02-26T06:09:30.553Z,0.10
2019-02-26T06:10:46.329Z,0.00
2019-02-26T06:12:02.570Z,-0.10
2019-02-26T06:13:19.431Z,-0.10
2019-02-26T06:14:36.268Z,-0.10
2019-02-26T06:15:55.212Z,-0.20
2019-02-26T06:17:13.195Z,-0.20
2019-02-26T06:18:29.328Z,-0.20
2019-02-26T06:19:45.224Z,-0.20
2019-02-26T06:21:01.384Z,-0.20
2019-02-26T06:22:20.506Z,-0.20
2019-02-26T06:23:36.494Z,-0.20
2019-02-26T06:24:54.982Z,-0.20
2019-02-26T06:26:14.094Z,-0.20
2019-02-26T06:27:28.582Z,-0.20
2019-02-26T06:28:46.315Z,-0.20
2019-02-26T06:30:06.377Z,-0.20
2019-02-26T06:31:22.093Z,-0.20
2019-02-26T06:32:40.173Z,-0.20
2019-02-26T06:33:56.762Z,-0.20
2019-02-26T06:35:13.670Z,-0.20
2019-02-26T06:36:30.861Z,-0.10
2019-02-26T06:37:46.828Z,-0.10
2019-02-26T06:39:04.181Z,-0.10
2019-02-26T06:40:21.192Z,-0.10
2019-02-26T06:41:39.503Z,-0.10
2019-02-26T06:42:54.874Z,-0.10
2019-02-26T06:44:10.978Z,0.00
2019-02-26T06:45:26.964Z,0.00
2019-02-26T06:46:42.705Z,0.00
2019-02-26T06:47:58.983Z,0.10
2019-02-26T06:49:16.927Z,0.10
2019-02-26T06:50:34.091Z,0.20
2019-02-26T06:51:52.120Z,0.20
2019-02-26T06:53:11.079Z,0.20
2019-02-26T06:54:29.155Z,0.30
2019-02-26T06:55:45.734Z,0.30
2019-02-26T06:57:02.029Z,0.40
2019-02-26T06:58:18.168Z,0.40
2019-02-26T06:59:36.428Z,0.40
2019-02-26T07:00:55.119Z,0.50
2019-02-26T07:02:10.949Z,0.50
2019-02-26T07:03:27.172Z,0.50
2019-02-26T07:04:43.193Z,0.60
2019-02-26T07:06:01.625Z,0.70
2019-02-26T07:07:17.443Z,0.70
2019-02-26T07:08:33.294Z,0.70
2019-02-26T07:09:49.186Z,0.80
2019-02-26T07:11:07.220Z,0.80
2019-02-26T07:12:24.093Z,0.90
2019-02-26T07:13:43.405Z,0.90
2019-02-26T07:14:59.494Z,1.00
2019-02-26T07:16:15.345Z,1.10
2019-02-26T07:17:33.717Z,1.20
2019-02-26T07:18:49.705Z,1.30
2019-02-26T07:20:06.238Z,1.30
2019-02-26T07:21:22.394Z,1.40
2019-02-26T07:22:39.799Z,1.50
2019-02-26T07:23:56.419Z,1.70
2019-02-26T07:25:16.593Z,1.80
2019-02-26T07:26:32.050Z,1.90
2019-02-26T07:27:47.976Z,2.00
2019-02-26T07:29:05.763Z,2.10
2019-02-26T07:32:03.349Z,2.40
2019-02-26T07:33:19.078Z,2.60
2019-02-26T07:34:35.413Z,2.80
2019-02-26T07:35:52.345Z,3.00
2019-02-26T07:37:11.155Z,3.30
2019-02-26T07:38:27.668Z,3.70
2019-02-26T07:39:44.394Z,4.10
2019-02-26T07:41:03.624Z,4.60
2019-02-26T07:42:19.152Z,5.10
2019-02-26T07:43:38.787Z,5.60
2019-02-26T07:44:52.703Z,6.10
2019-02-26T07:46:10.425Z,6.50
2019-02-26T07:47:28.880Z,7.10
2019-02-26T07:48:46.158Z,7.60
2019-02-26T07:50:04.680Z,8.00
2019-02-26T07:51:20.277Z,8.50
2019-02-26T07:52:36.118Z,8.80
2019-02-26T07:53:54.282Z,9.10
2019-02-26T07:55:12.160Z,9.40
2019-02-26T07:56:30.123Z,9.70
2019-02-26T07:57:47.970Z,9.90
2019-02-26T07:59:07.089Z,10.10
2019-02-26T08:00:22.332Z,10.30
2019-02-26T08:01:39.788Z,10.40
2019-02-26T08:02:57.840Z,10.50
2019-02-26T08:04:16.032Z,10.70
2019-02-26T08:05:31.642Z,10.80
2019-02-26T08:06:47.680Z,10.90
2019-02-26T08:08:03.899Z,11.00
2019-02-26T08:09:23.139Z,11.10
2019-02-26T08:10:40.156Z,11.30
2019-02-26T08:11:56.258Z,11.40
2019-02-26T08:13:12.469Z,11.60
2019-02-26T08:14:28.536Z,11.70
2019-02-26T08:15:44.470Z,11.90
2019-02-26T08:17:01.870Z,12.10
2019-02-26T08:18:18.371Z,12.20
2019-02-26T08:19:34.957Z,12.30
2019-02-26T08:20:52.810Z,12.60
2019-02-26T08:22:10.027Z,12.80
2019-02-26T08:23:26.438Z,12.90
2019-02-26T08:24:42.055Z,13.00
2019-02-26T08:26:00.427Z,13.00
2019-02-26T08:27:15.414Z,13.10
2019-02-26T08:28:33.642Z,13.20
2019-02-26T08:29:51.594Z,13.20
2019-02-26T08:31:11.239Z,13.10
2019-02-26T08:32:27.947Z,13.10
2019-02-26T08:33:48.622Z,13.20
2019-02-26T08:35:02.927Z,13.20
2019-02-26T08:36:18.941Z,13.30
2019-02-26T08:37:35.048Z,13.50
2019-02-26T08:38:52.075Z,13.40
2019-02-26T08:40:09.542Z,13.50
2019-02-26T08:41:25.668Z,13.60
2019-02-26T08:42:42.515Z,13.70
2019-02-26T08:43:59.187Z,13.70
2019-02-26T08:45:17.558Z,13.80
2019-02-26T08:46:32.965Z,13.80
2019-02-26T08:47:49.129Z,13.80
2019-02-26T08:49:08.433Z,13.80
2019-02-26T08:50:23.634Z,13.80
2019-02-26T08:51:39.336Z,13.80
2019-02-26T08:52:58.491Z,13.90
2019-02-26T08:54:20.553Z,13.90
2019-02-26T08:55:31.735Z,13.90
2019-02-26T08:56:47.647Z,13.90
2019-02-26T08:58:03.741Z,13.90
2019-02-26T08:59:20.144Z,13.90
2019-02-26T09:00:36.432Z,14.00
2019-02-26T09:01:52.778Z,14.30
2019-02-26T09:03:10.620Z,14.50
2019-02-26T09:04:26.929Z,14.50
2019-02-26T09:05:42.837Z,14.60
2019-02-26T09:07:00.311Z,14.50
2019-02-26T09:08:18.206Z,14.60
2019-02-26T09:09:34.563Z,14.70
2019-02-26T09:10:50.398Z,14.70
2019-02-26T09:12:06.440Z,14.60
2019-02-26T09:13:22.607Z,14.70
2019-02-26T09:14:40.310Z,14.70
2019-02-26T09:15:58.310Z,14.80
2019-02-26T09:17:18.737Z,14.90
2019-02-26T09:18:35.528Z,14.90
2019-02-26T09:21:09.963Z,14.70
2019-02-26T09:22:26.663Z,14.70
2019-02-26T09:23:47.399Z,14.70
2019-02-26T09:25:02.193Z,14.70
2019-02-26T09:26:18.706Z,14.60
2019-02-26T09:27:42.546Z,14.40
2019-02-26T09:28:54.839Z,14.40
2019-02-26T09:30:11.819Z,14.50
2019-02-26T09:31:28.761Z,14.50
2019-02-26T09:32:44.937Z,14.50
2019-02-26T09:34:00.807Z,14.60
2019-02-26T09:35:19.130Z,14.60
2019-02-26T09:36:34.982Z,14.80
2019-02-26T09:37:52.810Z,14.80
2019-02-26T09:39:10.553Z,14.70
2019-02-26T09:40:29.224Z,14.70
2019-02-26T09:41:45.529Z,14.70
2019-02-26T09:43:01.468Z,14.80
2019-02-26T09:44:17.455Z,14.70
2019-02-26T09:45:33.550Z,14.80
2019-02-26T09:46:49.702Z,14.70
2019-02-26T09:48:05.290Z,14.50
2019-02-26T09:49:21.521Z,14.50
2019-02-26T09:50:38.646Z,14.40
2019-02-26T09:51:56.840Z,14.30
2019-02-26T09:53:13.467Z,14.40
2019-02-26T09:54:29.434Z,14.40
2019-02-26T09:55:45.437Z,14.40
2019-02-26T09:57:01.399Z,14.30
2019-02-26T09:58:20.055Z,14.30
2019-02-26T09:59:36.050Z,14.40
2019-02-26T10:00:54.103Z,14.40
2019-02-26T10:02:10.486Z,14.40
2019-02-26T10:03:27.305Z,14.40
2019-02-26T10:04:45.425Z,14.50
2019-02-26T10:06:02.138Z,14.40
2019-02-26T10:07:18.359Z,14.30
2019-02-26T10:08:34.221Z,14.20
2019-02-26T10:09:50.186Z,14.20
2019-02-26T10:11:06.102Z,14.30
2019-02-26T10:12:22.224Z,14.30
2019-02-26T10:13:39.633Z,14.20
2019-02-26T10:14:59.621Z,14.20
2019-02-26T10:16:14.367Z,14.20
2019-02-26T10:17:32.630Z,14.20
2019-02-26T10:18:52.535Z,14.10
2019-02-26T10:20:09.424Z,14.20
2019-02-26T10:21:25.180Z,14.30
2019-02-26T10:22:41.122Z,14.30
2019-02-26T10:23:59.299Z,14.30
2019-02-26T10:25:15.372Z,14.20
2019-02-26T10:26:33.376Z,14.10
2019-02-26T10:27:49.221Z,14.00
2019-02-26T10:29:07.924Z,13.90
2019-02-26T10:30:23.695Z,13.80
2019-02-26T10:31:41.098Z,13.60
2019-02-26T10:33:01.976Z,13.60
2019-02-26T10:34:16.307Z,13.60
2019-02-26T10:35:34.302Z,13.60
2019-02-26T10:36:51.880Z,13.60
2019-02-26T10:38:11.124Z,13.60
2019-02-26T10:39:28.187Z,13.50
2019-02-26T10:40:53.384Z,13.60
2019-02-26T10:42:02.704Z,13.60
2019-02-26T10:43:18.882Z,13.50
2019-02-26T10:44:35.131Z,13.60
2019-02-26T10:45:52.938Z,13.60
2019-02-26T10:47:10.571Z,13.60
2019-02-26T10:48:27.906Z,13.50
2019-02-26T10:49:46.446Z,13.50
2019-02-26T10:51:06.068Z,13.60
2019-02-26T10:52:21.637Z,13.60
2019-02-26T10:53:38.590Z,13.60
2019-02-26T10:54:54.709Z,13.70
2019-02-26T10:56:11.226Z,13.70
2019-02-26T10:57:28.879Z,13.70
2019-02-26T10:58:45.672Z,13.80
2019-02-26T11:00:02.567Z,13.80
2019-02-26T11:01:22.802Z,13.90
2019-02-26T11:02:37.582Z,13.90
2019-02-26T11:03:55.222Z,14.00
2019-02-26T11:05:14.108Z,14.20
2019-02-26T11:06:30.482Z,14.30
2019-02-26T11:07:47.056Z,14.30
2019-02-26T11:09:03.124Z,14.30
2019-02-26T11:10:20.967Z,14.40
2019-02-26T11:11:38.042Z,14.60
2019-02-26T11:12:58.643Z,14.60
2019-02-26T11:14:16.670Z,14.60
2019-02-26T11:15:33.940Z,14.70
2019-02-26T11:16:49.433Z,14.70
2019-02-26T11:18:05.938Z,14.70
2019-02-26T11:19:21.758Z,14.70
2019-02-26T11:20:37.898Z,14.70
2019-02-26T11:21:55.977Z,14.70
2019-02-26T11:23:13.747Z,14.80
2019-02-26T11:24:31.421Z,14.80
2019-02-26T11:25:47.737Z,14.80
2019-02-26T11:27:03.957Z,14.80
2019-02-26T11:28:20.771Z,14.80
2019-02-26T11:29:38.245Z,14.80
2019-02-26T11:30:56.558Z,14.80
2019-02-26T11:32:15.029Z,14.80
2019-02-26T11:33:30.946Z,14.80
2019-02-26T11:34:46.874Z,14.80
2019-02-26T11:36:03.496Z,14.80
2019-02-26T11:37:22.538Z,14.80
2019-02-26T11:38:41.565Z,14.80
2019-02-26T11:39:57.795Z,14.90
2019-02-26T11:41:14.642Z,15.00
2019-02-26T11:42:30.894Z,15.00
2019-02-26T11:43:46.816Z,14.90
2019-02-26T11:45:02.804Z,14.90
2019-02-26T11:46:20.100Z,14.90
2019-02-26T11:47:39.014Z,14.90
2019-02-26T11:48:55.505Z,15.00
2019-02-26T11:50:12.197Z,15.00
2019-02-26T11:51:36.810Z,15.00
2019-02-26T11:52:46.458Z,15.00
2019-02-26T11:54:05.060Z,15.00
2019-02-26T11:55:11.223Z,15.10
2019-02-26T11:56:34.415Z,15.10
2019-02-26T11:57:57.875Z,15.10
2019-02-26T11:59:21.440Z,15.20
2019-02-26T12:01:03.760Z,15.20
2019-02-26T12:02:33.414Z,15.30
2019-02-26T12:03:55.759Z,15.40
2019-02-26T12:12:03.318Z,15.70
2019-02-26T12:13:27.700Z,15.90
2019-02-26T12:21:20.189Z,15.90
2019-02-26T12:22:44.687Z,15.90
2019-02-26T12:24:09.208Z,16.00
2019-02-26T12:27:18.266Z,16.00
2019-02-26T12:28:41.856Z,15.90
2019-02-26T12:29:57.518Z,16.00
2019-02-26T12:31:13.895Z,16.10
2019-02-26T12:32:29.681Z,16.10
2019-02-26T12:33:45.983Z,16.10
2019-02-26T12:35:03.406Z,16.10
2019-02-26T12:36:21.267Z,16.20
2019-02-26T12:37:37.543Z,16.20
2019-02-26T12:38:56.339Z,16.30
2019-02-26T12:40:13.014Z,16.30
2019-02-26T12:41:29.637Z,16.30
2019-02-26T12:42:45.395Z,16.30
2019-02-26T12:44:04.099Z,16.30
2019-02-26T12:45:19.256Z,16.40
2019-02-26T12:46:35.164Z,16.40
2019-02-26T12:47:54.472Z,16.30
2019-02-26T12:49:12.056Z,16.30
2019-02-26T12:50:29.762Z,16.30
2019-02-26T12:51:44.718Z,16.30
2019-02-26T12:53:01.025Z,16.30
2019-02-26T12:55:58.835Z,16.50
2019-02-26T12:57:18.377Z,16.50
2019-02-26T12:58:32.660Z,16.50
2019-02-26T12:59:48.550Z,16.50
2019-02-26T13:01:04.399Z,16.50
2019-02-26T13:02:21.826Z,16.60
2019-02-26T13:03:39.877Z,16.60
2019-02-26T13:04:56.729Z,16.70
2019-02-26T13:06:15.316Z,16.70
2019-02-26T13:07:30.403Z,16.70
2019-02-26T13:08:49.070Z,16.80
2019-02-26T13:10:05.130Z,16.80
2019-02-26T13:11:24.976Z,16.70
2019-02-26T13:12:39.601Z,16.70
2019-02-26T13:13:55.796Z,16.70
2019-02-26T13:15:12.210Z,16.70
2019-02-26T13:16:28.248Z,16.70
2019-02-26T13:17:45.248Z,16.80
2019-02-26T13:19:04.660Z,16.80
2019-02-26T13:20:20.078Z,16.80
2019-02-26T13:21:36.352Z,16.80
2019-02-26T13:22:56.414Z,16.70
2019-02-26T13:24:12.345Z,16.70
2019-02-26T13:27:14.387Z,16.60
2019-02-26T13:28:30.579Z,16.60
2019-02-26T13:29:53.575Z,16.60
2019-02-26T13:31:07.857Z,16.60
2019-02-26T13:32:25.971Z,16.60
2019-02-26T13:33:42.192Z,16.70
2019-02-26T13:35:00.808Z,16.60
2019-02-26T13:36:16.372Z,16.60
2019-02-26T13:37:21.133Z,16.60
2019-02-26T13:38:33.938Z,16.60
2019-02-26T13:39:50.923Z,16.60
2019-02-26T13:41:28.868Z,16.60
2019-02-26T13:45:40.679Z,16.70
2019-02-26T13:46:45.152Z,16.80
2019-02-26T13:48:09.077Z,16.80
2019-02-26T13:49:32.504Z,16.80
2019-02-26T13:50:56.043Z,16.80
2019-02-26T13:52:00.638Z,16.80
2019-02-26T13:56:22.756Z,16.60
2019-02-26T14:00:44.732Z,16.70
2019-02-26T14:02:10.040Z,16.70
2019-02-26T14:03:33.605Z,16.70
2019-02-26T14:08:28.948Z,16.60
2019-02-26T14:11:35.268Z,16.50
2019-02-26T14:12:58.745Z,16.70
2019-02-26T14:14:36.409Z,16.60
2019-02-26T14:15:28.493Z,16.60
2019-02-26T14:16:33.380Z,16.50
2019-02-26T14:17:37.914Z,16.60
2019-02-26T14:18:42.789Z,16.50
2019-02-26T14:19:47.299Z,16.60
2019-02-26T14:20:52.021Z,16.60
2019-02-26T14:22:15.516Z,16.50
2019-02-26T14:23:39.015Z,16.60
2019-02-26T14:25:02.579Z,16.60
2019-02-26T14:28:10.162Z,16.70
2019-02-26T14:30:54.925Z,16.70
2019-02-26T14:32:10.895Z,16.70
2019-02-26T14:33:26.613Z,16.60
2019-02-26T14:34:42.793Z,16.60
2019-02-26T14:35:58.981Z,16.60
2019-02-26T14:37:15.310Z,16.60
2019-02-26T14:38:33.615Z,16.60
2019-02-26T14:39:49.286Z,16.60
2019-02-26T14:41:05.236Z,16.50
2019-02-26T14:42:21.721Z,16.50
2019-02-26T14:43:38.252Z,16.50
2019-02-26T14:44:54.254Z,16.50
2019-02-26T14:46:10.195Z,16.60
2019-02-26T14:47:26.116Z,16.60
2019-02-26T14:48:42.215Z,16.60
2019-02-26T14:49:58.190Z,16.60
2019-02-26T14:51:14.081Z,16.60
2019-02-26T14:52:30.081Z,16.50
2019-02-26T14:53:46.100Z,16.60
2019-02-26T14:55:02.103Z,16.60
2019-02-26T14:56:18.201Z,16.50
2019-02-26T14:57:34.424Z,16.60
2019-02-26T14:58:50.738Z,16.60
2019-02-26T15:00:06.718Z,16.50
2019-02-26T15:01:22.836Z,16.50
2019-02-26T15:02:38.605Z,16.40
2019-02-26T15:03:54.511Z,16.50
2019-02-26T15:05:10.925Z,16.40
2019-02-26T15:06:26.970Z,16.50
2019-02-26T15:07:37.042Z,16.50
2019-02-26T15:10:35.786Z,16.40
2019-02-26T15:11:59.408Z,16.40
2019-02-26T15:13:23.085Z,16.40
2019-02-26T15:14:48.753Z,16.30
2019-02-26T15:16:11.840Z,16.30
2019-02-26T15:19:17.933Z,16.20
2019-02-26T15:20:41.439Z,16.20
2019-02-26T15:23:33.647Z,16.10
2019-02-26T15:26:31.423Z,16.10
2019-02-26T15:28:13.841Z,16.10
2019-02-26T15:29:30.013Z,16.00
2019-02-26T15:30:46.303Z,16.00
2019-02-26T15:32:02.316Z,16.00
2019-02-26T15:33:18.332Z,15.90
2019-02-26T15:34:34.573Z,16.00
2019-02-26T15:35:50.831Z,16.00
2019-02-26T15:37:07.073Z,15.90
2019-02-26T15:38:22.758Z,15.90
2019-02-26T15:39:38.632Z,15.90
2019-02-26T15:40:54.650Z,15.90
2019-02-26T15:42:10.951Z,15.80
2019-02-26T15:43:26.997Z,15.90
2019-02-26T15:44:43.090Z,15.80
2019-02-26T15:45:59.749Z,15.80
2019-02-26T15:47:18.543Z,15.70
2019-02-26T15:48:36.458Z,15.70
2019-02-26T15:49:52.954Z,15.60
2019-02-26T15:51:14.290Z,15.60
2019-02-26T15:52:26.954Z,15.60
2019-02-26T15:53:42.941Z,15.60
2019-02-26T15:54:58.961Z,15.50
2019-02-26T15:56:14.860Z,15.50
2019-02-26T15:57:31.859Z,15.50
2019-02-26T15:58:48.379Z,15.50
2019-02-26T16:00:06.362Z,15.50
2019-02-26T16:01:21.613Z,15.50
2019-02-26T16:02:37.959Z,15.40
2019-02-26T16:03:53.710Z,15.40
2019-02-26T16:05:09.960Z,15.40
2019-02-26T16:06:25.876Z,15.40
2019-02-26T16:07:42.200Z,15.40
2019-02-26T16:08:58.470Z,15.30
2019-02-26T16:10:14.602Z,15.30
2019-02-26T16:11:30.522Z,15.30
2019-02-26T16:12:46.471Z,15.20
2019-02-26T16:14:02.665Z,15.20
2019-02-26T16:15:18.715Z,15.20
2019-02-26T16:16:35.414Z,15.10
2019-02-26T16:17:51.056Z,15.00
2019-02-26T16:19:07.325Z,15.10
2019-02-26T16:20:23.273Z,15.00
2019-02-26T16:21:39.610Z,15.00
2019-02-26T16:22:55.993Z,15.00
2019-02-26T16:24:11.693Z,14.90
2019-02-26T16:25:27.734Z,14.90
2019-02-26T16:26:43.677Z,14.80
2019-02-26T16:27:59.900Z,14.80
2019-02-26T16:29:17.804Z,14.70
2019-02-26T16:30:35.269Z,14.60
2019-02-26T16:31:51.733Z,14.60
2019-02-26T16:33:08.101Z,14.50
2019-02-26T16:34:23.902Z,14.40
2019-02-26T16:35:39.835Z,14.40
2019-02-26T16:36:55.700Z,14.30
2019-02-26T16:38:14.138Z,14.20
2019-02-26T16:39:29.888Z,14.20
2019-02-26T16:40:46.793Z,14.00
2019-02-26T16:42:02.563Z,14.00
2019-02-26T16:43:18.433Z,13.90
2019-02-26T16:44:34.433Z,13.80
2019-02-26T16:45:50.868Z,13.80
2019-02-26T16:47:06.923Z,13.70
2019-02-26T16:48:22.981Z,13.70
2019-02-26T16:49:39.081Z,13.60
2019-02-26T16:50:54.855Z,13.50
2019-02-26T16:52:11.041Z,13.40
2019-02-26T16:53:26.778Z,13.30
2019-02-26T16:54:43.038Z,13.20
2019-02-26T16:55:59.239Z,13.20
2019-02-26T16:57:15.119Z,13.00
2019-02-26T16:58:31.060Z,12.90
2019-02-26T16:59:46.799Z,12.80
2019-02-26T17:01:05.855Z,12.60
2019-02-26T17:02:21.927Z,12.60
2019-02-26T17:03:38.018Z,12.50
2019-02-26T17:04:54.160Z,12.40
2019-02-26T17:06:10.883Z,12.30
2019-02-26T17:07:26.589Z,12.30
2019-02-26T17:08:44.696Z,12.30
2019-02-26T17:10:00.288Z,12.20
2019-02-26T17:11:16.200Z,12.20
2019-02-26T17:12:32.332Z,12.10
2019-02-26T17:13:48.662Z,12.00
2019-02-26T17:15:04.901Z,11.90
2019-02-26T17:16:21.063Z,11.80
2019-02-26T17:17:37.396Z,11.70
2019-02-26T17:18:53.885Z,11.50
2019-02-26T17:20:10.149Z,11.40
2019-02-26T17:21:30.543Z,11.30
2019-02-26T17:22:45.036Z,11.20
2019-02-26T17:24:01.040Z,11.20
2019-02-26T17:25:17.049Z,11.10
2019-02-26T17:26:33.962Z,11.00
2019-02-26T17:27:50.433Z,10.90
2019-02-26T17:29:06.471Z,10.90
2019-02-26T17:30:23.998Z,10.80
2019-02-26T17:31:40.654Z,10.70
2019-02-26T17:32:56.874Z,10.60
2019-02-26T17:34:13.450Z,10.50
2019-02-26T17:35:29.743Z,10.40
2019-02-26T17:36:46.424Z,10.30
2019-02-26T17:38:02.250Z,10.20
2019-02-26T17:39:20.177Z,10.10
2019-02-26T17:40:37.192Z,10.10
2019-02-26T17:41:53.974Z,10.00
2019-02-26T17:43:10.204Z,10.00
2019-02-26T17:44:26.115Z,9.90
2019-02-26T17:45:42.093Z,9.90
2019-02-26T17:46:57.978Z,9.90
2019-02-26T17:48:13.820Z,9.90
2019-02-26T17:49:29.531Z,9.90
2019-02-26T17:50:45.888Z,9.80
2019-02-26T17:52:06.477Z,9.70
2019-02-26T17:53:22.664Z,9.60
2019-02-26T17:54:38.555Z,9.60
2019-02-26T17:55:54.471Z,9.50
2019-02-26T17:57:10.843Z,9.50
2019-02-26T17:58:26.916Z,9.40
2019-02-26T17:59:42.896Z,9.30
2019-02-26T18:00:59.070Z,9.20
2019-02-26T18:02:14.992Z,9.20
2019-02-26T18:03:30.852Z,9.10
2019-02-26T18:04:46.793Z,9.10
2019-02-26T18:06:02.727Z,9.10
2019-02-26T18:07:19.129Z,9.00
2019-02-26T18:08:35.049Z,9.00
2019-02-26T18:09:51.171Z,8.90
2019-02-26T18:11:07.060Z,8.90
2019-02-26T18:12:22.952Z,8.90
2019-02-26T18:13:38.837Z,8.80
2019-02-26T18:14:56.142Z,8.80
2019-02-26T18:16:12.684Z,8.70
2019-02-26T18:17:29.015Z,8.70
2019-02-26T18:18:45.268Z,8.70
2019-02-26T18:20:01.408Z,8.60
2019-02-26T18:21:17.283Z,8.50
2019-02-26T18:22:34.866Z,8.50
2019-02-26T18:23:51.387Z,8.40
2019-02-26T18:25:09.785Z,8.50